sensor_id;sensor_type;location;lat;lon;timestamp;pressure;altitude;pressure_sealevel;temperature
12918;BMP180;6526;54.312;13.092;2022-10-29T00:01:54;102071.00;;;20.30
12918;BMP180;6526;54.312;13.092;2022-10-29T00:04:20;102067.00;;;20.30
12918;BMP180;6526;54.312;13.092;2022-10-29T00:06:47;102067.00;;;20.30
12918;BMP180;6526;54.312;13.092;2022-10-29T00:09:14;102062.00;;;20.20
12918;BMP180;6526;54.312;13.092;2022-10-29T00:11:40;102075.00;;;20.10
12918;BMP180;6526;54.312;13.092;2022-10-29T00:14:06;102072.00;;;20.20
12918;BMP180;6526;54.312;13.092;2022-10-29T00:16:37;102066.00;;;20.10
12918;BMP180;6526;54.312;13.092;2022-10-29T00:19:04;102069.00;;;20.20
12918;BMP180;6526;54.312;13.092;2022-10-29T00:21:31;102071.00;;;20.10
12918;BMP180;6526;54.312;13.092;2022-10-29T00:23:58;102080.00;;;20.10
12918;BMP180;6526;54.312;13.092;2022-10-29T00:26:24;102075.00;;;20.00
12918;BMP180;6526;54.312;13.092;2022-10-29T00:28:54;102071.00;;;20.00
12918;BMP180;6526;54.312;13.092;2022-10-29T00:31:20;102090.00;;;20.00
12918;BMP180;6526;54.312;13.092;2022-10-29T00:33:50;102096.00;;;20.00
12918;BMP180;6526;54.312;13.092;2022-10-29T00:36:21;102096.00;;;20.10
12918;BMP180;6526;54.312;13.092;2022-10-29T00:38:48;102094.00;;;19.90
12918;BMP180;6526;54.312;13.092;2022-10-29T00:41:17;102079.00;;;19.90
12918;BMP180;6526;54.312;13.092;2022-10-29T00:43:48;102086.00;;;19.90
12918;BMP180;6526;54.312;13.092;2022-10-29T00:46:26;102086.00;;;20.00
12918;BMP180;6526;54.312;13.092;2022-10-29T00:48:55;102080.00;;;19.90
12918;BMP180;6526;54.312;13.092;2022-10-29T00:51:22;102088.00;;;19.80
12918;BMP180;6526;54.312;13.092;2022-10-29T00:53:56;102094.00;;;19.80
12918;BMP180;6526;54.312;13.092;2022-10-29T00:56:25;102093.00;;;19.90
12918;BMP180;6526;54.312;13.092;2022-10-29T00:58:53;102085.00;;;19.90
12918;BMP180;6526;54.312;13.092;2022-10-29T01:01:20;102086.00;;;19.80
12918;BMP180;6526;54.312;13.092;2022-10-29T01:03:46;102094.00;;;19.70
12918;BMP180;6526;54.312;13.092;2022-10-29T01:06:13;102087.00;;;19.80
12918;BMP180;6526;54.312;13.092;2022-10-29T01:08:39;102092.00;;;19.70
12918;BMP180;6526;54.312;13.092;2022-10-29T01:13:58;102099.00;;;19.70
12918;BMP180;6526;54.312;13.092;2022-10-29T01:16:44;102107.00;;;19.80
12918;BMP180;6526;54.312;13.092;2022-10-29T01:22:49;102108.00;;;19.70
12918;BMP180;6526;54.312;13.092;2022-10-29T01:31:11;102108.00;;;19.50
12918;BMP180;6526;54.312;13.092;2022-10-29T01:34:19;102127.00;;;19.50
12918;BMP180;6526;54.312;13.092;2022-10-29T01:36:57;102126.00;;;19.50
12918;BMP180;6526;54.312;13.092;2022-10-29T01:42:31;102118.00;;;19.40
12918;BMP180;6526;54.312;13.092;2022-10-29T01:45:16;102128.00;;;19.40
12918;BMP180;6526;54.312;13.092;2022-10-29T01:47:48;102126.00;;;19.40
12918;BMP180;6526;54.312;13.092;2022-10-29T01:50:18;102128.00;;;19.30
12918;BMP180;6526;54.312;13.092;2022-10-29T01:52:47;102137.00;;;19.30
12918;BMP180;6526;54.312;13.092;2022-10-29T01:55:20;102122.00;;;19.20
12918;BMP180;6526;54.312;13.092;2022-10-29T01:57:46;102117.00;;;19.30
12918;BMP180;6526;54.312;13.092;2022-10-29T02:00:15;102140.00;;;19.20
12918;BMP180;6526;54.312;13.092;2022-10-29T02:03:06;102142.00;;;19.10
12918;BMP180;6526;54.312;13.092;2022-10-29T02:05:49;102130.00;;;19.00
12918;BMP180;6526;54.312;13.092;2022-10-29T02:11:14;102141.00;;;19.00
12918;BMP180;6526;54.312;13.092;2022-10-29T02:13:50;102138.00;;;18.90
12918;BMP180;6526;54.312;13.092;2022-10-29T02:16:19;102143.00;;;18.90
12918;BMP180;6526;54.312;13.092;2022-10-29T02:18:48;102139.00;;;19.00
12918;BMP180;6526;54.312;13.092;2022-10-29T02:21:15;102144.00;;;19.00
12918;BMP180;6526;54.312;13.092;2022-10-29T02:23:41;102128.00;;;18.90
12918;BMP180;6526;54.312;13.092;2022-10-29T02:26:07;102137.00;;;18.90
12918;BMP180;6526;54.312;13.092;2022-10-29T02:28:33;102127.00;;;18.80
12918;BMP180;6526;54.312;13.092;2022-10-29T02:30:59;102136.00;;;18.70
12918;BMP180;6526;54.312;13.092;2022-10-29T02:33:25;102140.00;;;18.70
12918;BMP180;6526;54.312;13.092;2022-10-29T02:35:51;102129.00;;;18.70
12918;BMP180;6526;54.312;13.092;2022-10-29T02:38:17;102135.00;;;18.60
12918;BMP180;6526;54.312;13.092;2022-10-29T02:40:43;102139.00;;;18.70
12918;BMP180;6526;54.312;13.092;2022-10-29T02:43:09;102151.00;;;18.70
12918;BMP180;6526;54.312;13.092;2022-10-29T02:45:35;102158.00;;;18.80
12918;BMP180;6526;54.312;13.092;2022-10-29T02:48:01;102137.00;;;18.60
12918;BMP180;6526;54.312;13.092;2022-10-29T02:50:27;102153.00;;;18.80
12918;BMP180;6526;54.312;13.092;2022-10-29T02:52:54;102144.00;;;18.70
12918;BMP180;6526;54.312;13.092;2022-10-29T02:55:20;102147.00;;;18.70
12918;BMP180;6526;54.312;13.092;2022-10-29T02:57:46;102160.00;;;18.80
12918;BMP180;6526;54.312;13.092;2022-10-29T03:00:12;102163.00;;;18.70
12918;BMP180;6526;54.312;13.092;2022-10-29T03:02:39;102154.00;;;18.70
12918;BMP180;6526;54.312;13.092;2022-10-29T03:05:06;102156.00;;;18.70
12918;BMP180;6526;54.312;13.092;2022-10-29T03:07:36;102172.00;;;18.60
12918;BMP180;6526;54.312;13.092;2022-10-29T03:10:06;102158.00;;;18.60
12918;BMP180;6526;54.312;13.092;2022-10-29T03:12:33;102166.00;;;18.50
12918;BMP180;6526;54.312;13.092;2022-10-29T03:14:59;102168.00;;;18.50
12918;BMP180;6526;54.312;13.092;2022-10-29T03:17:25;102178.00;;;18.50
12918;BMP180;6526;54.312;13.092;2022-10-29T03:19:51;102168.00;;;18.60
12918;BMP180;6526;54.312;13.092;2022-10-29T03:22:17;102169.00;;;18.50
12918;BMP180;6526;54.312;13.092;2022-10-29T03:24:43;102176.00;;;18.40
12918;BMP180;6526;54.312;13.092;2022-10-29T03:27:09;102178.00;;;18.40
12918;BMP180;6526;54.312;13.092;2022-10-29T03:29:35;102180.00;;;18.40
12918;BMP180;6526;54.312;13.092;2022-10-29T03:32:01;102185.00;;;18.40
12918;BMP180;6526;54.312;13.092;2022-10-29T03:34:27;102176.00;;;18.40
12918;BMP180;6526;54.312;13.092;2022-10-29T03:36:53;102186.00;;;18.20
12918;BMP180;6526;54.312;13.092;2022-10-29T03:39:19;102184.00;;;18.40
12918;BMP180;6526;54.312;13.092;2022-10-29T03:41:45;102192.00;;;18.40
12918;BMP180;6526;54.312;13.092;2022-10-29T03:44:11;102191.00;;;18.40
12918;BMP180;6526;54.312;13.092;2022-10-29T03:46:37;102191.00;;;18.50
12918;BMP180;6526;54.312;13.092;2022-10-29T03:49:03;102211.00;;;18.30
12918;BMP180;6526;54.312;13.092;2022-10-29T03:51:29;102201.00;;;18.20
12918;BMP180;6526;54.312;13.092;2022-10-29T03:53:55;102210.00;;;18.20
12918;BMP180;6526;54.312;13.092;2022-10-29T03:56:21;102201.00;;;18.10
12918;BMP180;6526;54.312;13.092;2022-10-29T03:58:47;102209.00;;;18.20
12918;BMP180;6526;54.312;13.092;2022-10-29T04:01:13;102211.00;;;18.00
12918;BMP180;6526;54.312;13.092;2022-10-29T04:03:39;102208.00;;;18.00
12918;BMP180;6526;54.312;13.092;2022-10-29T04:06:14;102204.00;;;17.80
12918;BMP180;6526;54.312;13.092;2022-10-29T04:08:41;102208.00;;;17.90
12918;BMP180;6526;54.312;13.092;2022-10-29T04:11:09;102228.00;;;17.90
12918;BMP180;6526;54.312;13.092;2022-10-29T04:13:36;102233.00;;;17.80
12918;BMP180;6526;54.312;13.092;2022-10-29T04:16:02;102218.00;;;17.70
12918;BMP180;6526;54.312;13.092;2022-10-29T04:18:28;102224.00;;;17.60
12918;BMP180;6526;54.312;13.092;2022-10-29T04:20:59;102220.00;;;17.70
12918;BMP180;6526;54.312;13.092;2022-10-29T04:23:26;102203.00;;;17.60
12918;BMP180;6526;54.312;13.092;2022-10-29T04:25:57;102230.00;;;17.50
12918;BMP180;6526;54.312;13.092;2022-10-29T04:28:24;102232.00;;;17.60
12918;BMP180;6526;54.312;13.092;2022-10-29T04:30:50;102219.00;;;17.50
12918;BMP180;6526;54.312;13.092;2022-10-29T04:33:17;102226.00;;;17.40
12918;BMP180;6526;54.312;13.092;2022-10-29T04:35:43;102225.00;;;17.50
12918;BMP180;6526;54.312;13.092;2022-10-29T04:38:10;102231.00;;;17.30
12918;BMP180;6526;54.312;13.092;2022-10-29T04:40:36;102238.00;;;17.20
12918;BMP180;6526;54.312;13.092;2022-10-29T04:43:02;102236.00;;;17.20
12918;BMP180;6526;54.312;13.092;2022-10-29T04:45:28;102231.00;;;17.30
12918;BMP180;6526;54.312;13.092;2022-10-29T04:48:01;102232.00;;;17.20
12918;BMP180;6526;54.312;13.092;2022-10-29T04:50:28;102252.00;;;17.20
12918;BMP180;6526;54.312;13.092;2022-10-29T04:53:01;102240.00;;;17.10
12918;BMP180;6526;54.312;13.092;2022-10-29T04:55:28;102251.00;;;17.30
12918;BMP180;6526;54.312;13.092;2022-10-29T04:57:54;102237.00;;;17.20
12918;BMP180;6526;54.312;13.092;2022-10-29T05:00:21;102254.00;;;17.30
12918;BMP180;6526;54.312;13.092;2022-10-29T05:02:49;102246.00;;;17.20
12918;BMP180;6526;54.312;13.092;2022-10-29T05:05:19;102243.00;;;17.10
12918;BMP180;6526;54.312;13.092;2022-10-29T05:07:46;102232.00;;;17.10
12918;BMP180;6526;54.312;13.092;2022-10-29T05:10:12;102235.00;;;17.10
12918;BMP180;6526;54.312;13.092;2022-10-29T05:12:39;102232.00;;;17.00
12918;BMP180;6526;54.312;13.092;2022-10-29T05:15:05;102235.00;;;17.00
12918;BMP180;6526;54.312;13.092;2022-10-29T05:17:35;102249.00;;;17.10
12918;BMP180;6526;54.312;13.092;2022-10-29T05:20:01;102258.00;;;17.00
12918;BMP180;6526;54.312;13.092;2022-10-29T05:22:27;102258.00;;;17.00
12918;BMP180;6526;54.312;13.092;2022-10-29T05:24:53;102263.00;;;17.00
12918;BMP180;6526;54.312;13.092;2022-10-29T05:27:19;102268.00;;;17.00
12918;BMP180;6526;54.312;13.092;2022-10-29T05:29:45;102257.00;;;17.10
12918;BMP180;6526;54.312;13.092;2022-10-29T05:32:11;102276.00;;;16.90
12918;BMP180;6526;54.312;13.092;2022-10-29T05:34:39;102275.00;;;17.00
12918;BMP180;6526;54.312;13.092;2022-10-29T05:37:05;102291.00;;;16.90
12918;BMP180;6526;54.312;13.092;2022-10-29T05:39:31;102300.00;;;17.00
12918;BMP180;6526;54.312;13.092;2022-10-29T05:41:57;102272.00;;;16.90
12918;BMP180;6526;54.312;13.092;2022-10-29T05:44:23;102276.00;;;16.90
12918;BMP180;6526;54.312;13.092;2022-10-29T05:46:49;102259.00;;;16.80
12918;BMP180;6526;54.312;13.092;2022-10-29T05:49:15;102245.00;;;16.90
12918;BMP180;6526;54.312;13.092;2022-10-29T05:51:41;102249.00;;;16.80
12918;BMP180;6526;54.312;13.092;2022-10-29T05:54:07;102247.00;;;16.80
12918;BMP180;6526;54.312;13.092;2022-10-29T05:56:33;102265.00;;;16.80
12918;BMP180;6526;54.312;13.092;2022-10-29T05:58:59;102257.00;;;16.80
12918;BMP180;6526;54.312;13.092;2022-10-29T06:01:25;102266.00;;;16.70
12918;BMP180;6526;54.312;13.092;2022-10-29T06:03:51;102276.00;;;16.70
12918;BMP180;6526;54.312;13.092;2022-10-29T06:06:17;102288.00;;;16.70
12918;BMP180;6526;54.312;13.092;2022-10-29T06:08:43;102295.00;;;16.80
12918;BMP180;6526;54.312;13.092;2022-10-29T06:11:09;102284.00;;;16.70
12918;BMP180;6526;54.312;13.092;2022-10-29T06:13:35;102305.00;;;16.80
12918;BMP180;6526;54.312;13.092;2022-10-29T06:16:01;102308.00;;;16.80
12918;BMP180;6526;54.312;13.092;2022-10-29T06:18:28;102295.00;;;16.80
12918;BMP180;6526;54.312;13.092;2022-10-29T06:20:57;102310.00;;;17.00
12918;BMP180;6526;54.312;13.092;2022-10-29T06:23:24;102298.00;;;16.80
12918;BMP180;6526;54.312;13.092;2022-10-29T06:25:50;102306.00;;;16.80
12918;BMP180;6526;54.312;13.092;2022-10-29T06:28:16;102303.00;;;16.70
12918;BMP180;6526;54.312;13.092;2022-10-29T06:30:50;102303.00;;;16.80
12918;BMP180;6526;54.312;13.092;2022-10-29T06:33:20;102327.00;;;16.90
12918;BMP180;6526;54.312;13.092;2022-10-29T06:35:46;102308.00;;;16.80
12918;BMP180;6526;54.312;13.092;2022-10-29T06:38:13;102293.00;;;16.70
12918;BMP180;6526;54.312;13.092;2022-10-29T06:40:39;102293.00;;;16.80
12918;BMP180;6526;54.312;13.092;2022-10-29T06:43:10;102319.00;;;16.70
12918;BMP180;6526;54.312;13.092;2022-10-29T06:45:37;102323.00;;;16.60
12918;BMP180;6526;54.312;13.092;2022-10-29T06:48:03;102329.00;;;16.60
12918;BMP180;6526;54.312;13.092;2022-10-29T06:50:32;102337.00;;;16.70
12918;BMP180;6526;54.312;13.092;2022-10-29T06:53:01;102338.00;;;16.70
12918;BMP180;6526;54.312;13.092;2022-10-29T06:55:28;102332.00;;;16.60
12918;BMP180;6526;54.312;13.092;2022-10-29T06:57:58;102347.00;;;16.70
12918;BMP180;6526;54.312;13.092;2022-10-29T07:00:25;102331.00;;;16.70
12918;BMP180;6526;54.312;13.092;2022-10-29T07:02:51;102340.00;;;16.90
12918;BMP180;6526;54.312;13.092;2022-10-29T07:05:17;102341.00;;;16.90
12918;BMP180;6526;54.312;13.092;2022-10-29T07:07:43;102338.00;;;16.90
12918;BMP180;6526;54.312;13.092;2022-10-29T07:10:09;102348.00;;;16.90
12918;BMP180;6526;54.312;13.092;2022-10-29T07:12:41;102340.00;;;16.80
12918;BMP180;6526;54.312;13.092;2022-10-29T07:15:08;102341.00;;;16.80
12918;BMP180;6526;54.312;13.092;2022-10-29T07:17:35;102348.00;;;16.80
12918;BMP180;6526;54.312;13.092;2022-10-29T07:20:01;102343.00;;;16.90
12918;BMP180;6526;54.312;13.092;2022-10-29T07:22:27;102334.00;;;16.90
12918;BMP180;6526;54.312;13.092;2022-10-29T07:24:53;102342.00;;;17.10
12918;BMP180;6526;54.312;13.092;2022-10-29T07:27:20;102349.00;;;17.10
12918;BMP180;6526;54.312;13.092;2022-10-29T07:29:46;102348.00;;;17.10
12918;BMP180;6526;54.312;13.092;2022-10-29T07:32:12;102355.00;;;17.10
12918;BMP180;6526;54.312;13.092;2022-10-29T07:34:38;102361.00;;;17.50
12918;BMP180;6526;54.312;13.092;2022-10-29T07:37:04;102360.00;;;17.60
12918;BMP180;6526;54.312;13.092;2022-10-29T07:39:30;102361.00;;;17.80
12918;BMP180;6526;54.312;13.092;2022-10-29T07:41:56;102384.00;;;17.90
12918;BMP180;6526;54.312;13.092;2022-10-29T07:44:22;102366.00;;;18.10
12918;BMP180;6526;54.312;13.092;2022-10-29T07:46:48;102375.00;;;18.20
12918;BMP180;6526;54.312;13.092;2022-10-29T07:49:14;102374.00;;;18.10
12918;BMP180;6526;54.312;13.092;2022-10-29T07:51:40;102387.00;;;18.10
12918;BMP180;6526;54.312;13.092;2022-10-29T07:54:06;102381.00;;;18.00
12918;BMP180;6526;54.312;13.092;2022-10-29T07:56:32;102384.00;;;17.90
12918;BMP180;6526;54.312;13.092;2022-10-29T07:58:58;102392.00;;;17.90
12918;BMP180;6526;54.312;13.092;2022-10-29T08:01:24;102394.00;;;17.80
12918;BMP180;6526;54.312;13.092;2022-10-29T08:03:50;102394.00;;;17.70
12918;BMP180;6526;54.312;13.092;2022-10-29T08:06:17;102387.00;;;17.70
12918;BMP180;6526;54.312;13.092;2022-10-29T08:08:43;102382.00;;;17.70
12918;BMP180;6526;54.312;13.092;2022-10-29T08:11:09;102392.00;;;17.70
12918;BMP180;6526;54.312;13.092;2022-10-29T08:13:35;102393.00;;;17.70
12918;BMP180;6526;54.312;13.092;2022-10-29T08:16:01;102405.00;;;17.90
12918;BMP180;6526;54.312;13.092;2022-10-29T08:18:27;102397.00;;;17.90
12918;BMP180;6526;54.312;13.092;2022-10-29T08:20:53;102391.00;;;18.10
12918;BMP180;6526;54.312;13.092;2022-10-29T08:23:19;102402.00;;;18.00
12918;BMP180;6526;54.312;13.092;2022-10-29T08:25:45;102399.00;;;18.00
12918;BMP180;6526;54.312;13.092;2022-10-29T08:28:13;102397.00;;;18.10
12918;BMP180;6526;54.312;13.092;2022-10-29T08:30:39;102419.00;;;18.10
12918;BMP180;6526;54.312;13.092;2022-10-29T08:33:06;102410.00;;;18.00
12918;BMP180;6526;54.312;13.092;2022-10-29T08:35:33;102406.00;;;18.10
12918;BMP180;6526;54.312;13.092;2022-10-29T08:37:59;102402.00;;;18.40
12918;BMP180;6526;54.312;13.092;2022-10-29T08:48:57;102388.00;;;18.60
12918;BMP180;6526;54.312;13.092;2022-10-29T08:51:35;102397.00;;;18.60
12918;BMP180;6526;54.312;13.092;2022-10-29T08:54:01;102388.00;;;18.60
12918;BMP180;6526;54.312;13.092;2022-10-29T08:56:33;102403.00;;;18.60
12918;BMP180;6526;54.312;13.092;2022-10-29T08:59:06;102402.00;;;18.70
12918;BMP180;6526;54.312;13.092;2022-10-29T09:01:33;102409.00;;;18.80
12918;BMP180;6526;54.312;13.092;2022-10-29T09:04:00;102404.00;;;18.80
12918;BMP180;6526;54.312;13.092;2022-10-29T09:09:16;102406.00;;;19.20
12918;BMP180;6526;54.312;13.092;2022-10-29T09:17:20;102394.00;;;19.20
12918;BMP180;6526;54.312;13.092;2022-10-29T09:22:35;102398.00;;;19.10
12918;BMP180;6526;54.312;13.092;2022-10-29T09:25:29;102403.00;;;19.20
12918;BMP180;6526;54.312;13.092;2022-10-29T09:28:24;102394.00;;;19.20
12918;BMP180;6526;54.312;13.092;2022-10-29T09:30:56;102391.00;;;19.30
12918;BMP180;6526;54.312;13.092;2022-10-29T09:33:24;102405.00;;;19.30
12918;BMP180;6526;54.312;13.092;2022-10-29T09:35:56;102403.00;;;19.30
12918;BMP180;6526;54.312;13.092;2022-10-29T09:40:59;102408.00;;;19.40
12918;BMP180;6526;54.312;13.092;2022-10-29T09:43:50;102414.00;;;19.30
12918;BMP180;6526;54.312;13.092;2022-10-29T09:46:33;102412.00;;;19.30
12918;BMP180;6526;54.312;13.092;2022-10-29T09:49:16;102407.00;;;19.40
12918;BMP180;6526;54.312;13.092;2022-10-29T09:52:13;102398.00;;;19.30
12918;BMP180;6526;54.312;13.092;2022-10-29T09:54:40;102404.00;;;19.30
12918;BMP180;6526;54.312;13.092;2022-10-29T09:57:16;102401.00;;;19.40
12918;BMP180;6526;54.312;13.092;2022-10-29T10:00:02;102405.00;;;19.50
12918;BMP180;6526;54.312;13.092;2022-10-29T10:02:32;102404.00;;;19.50
12918;BMP180;6526;54.312;13.092;2022-10-29T10:07:41;102393.00;;;19.60
12918;BMP180;6526;54.312;13.092;2022-10-29T10:10:20;102392.00;;;19.70
12918;BMP180;6526;54.312;13.092;2022-10-29T10:12:48;102391.00;;;19.60
12918;BMP180;6526;54.312;13.092;2022-10-29T10:15:24;102377.00;;;19.50
12918;BMP180;6526;54.312;13.092;2022-10-29T10:20:43;102382.00;;;19.40
12918;BMP180;6526;54.312;13.092;2022-10-29T10:23:49;102376.00;;;19.30
12918;BMP180;6526;54.312;13.092;2022-10-29T10:29:19;102386.00;;;19.30
12918;BMP180;6526;54.312;13.092;2022-10-29T10:34:26;102393.00;;;19.50
12918;BMP180;6526;54.312;13.092;2022-10-29T10:39:36;102398.00;;;19.50
12918;BMP180;6526;54.312;13.092;2022-10-29T10:42:21;102398.00;;;19.60
12918;BMP180;6526;54.312;13.092;2022-10-29T10:44:57;102387.00;;;19.50
12918;BMP180;6526;54.312;13.092;2022-10-29T10:47:30;102385.00;;;19.50
12918;BMP180;6526;54.312;13.092;2022-10-29T10:50:23;102385.00;;;19.40
12918;BMP180;6526;54.312;13.092;2022-10-29T10:52:51;102375.00;;;19.40
12918;BMP180;6526;54.312;13.092;2022-10-29T10:55:30;102374.00;;;19.20
12918;BMP180;6526;54.312;13.092;2022-10-29T10:58:18;102368.00;;;19.20
12918;BMP180;6526;54.312;13.092;2022-10-29T11:00:58;102389.00;;;19.30
12918;BMP180;6526;54.312;13.092;2022-10-29T11:03:46;102392.00;;;19.30
12918;BMP180;6526;54.312;13.092;2022-10-29T11:06:32;102393.00;;;19.30
12918;BMP180;6526;54.312;13.092;2022-10-29T11:12:23;102383.00;;;19.30
12918;BMP180;6526;54.312;13.092;2022-10-29T11:14:59;102363.00;;;19.30
12918;BMP180;6526;54.312;13.092;2022-10-29T11:20:25;102355.00;;;19.10
12918;BMP180;6526;54.312;13.092;2022-10-29T11:23:21;102341.00;;;19.20
12918;BMP180;6526;54.312;13.092;2022-10-29T11:26:07;102347.00;;;19.20
12918;BMP180;6526;54.312;13.092;2022-10-29T11:28:42;102358.00;;;19.20
12918;BMP180;6526;54.312;13.092;2022-10-29T11:31:35;102352.00;;;19.40
12918;BMP180;6526;54.312;13.092;2022-10-29T11:34:19;102349.00;;;19.50
12918;BMP180;6526;54.312;13.092;2022-10-29T11:37:01;102358.00;;;19.50
12918;BMP180;6526;54.312;13.092;2022-10-29T11:39:54;102377.00;;;19.50
12918;BMP180;6526;54.312;13.092;2022-10-29T11:42:22;102377.00;;;19.60
12918;BMP180;6526;54.312;13.092;2022-10-29T11:44:48;102386.00;;;19.80
12918;BMP180;6526;54.312;13.092;2022-10-29T11:47:47;102371.00;;;19.80
12918;BMP180;6526;54.312;13.092;2022-10-29T11:50:24;102381.00;;;19.80
12918;BMP180;6526;54.312;13.092;2022-10-29T11:53:13;102381.00;;;19.80
12918;BMP180;6526;54.312;13.092;2022-10-29T11:55:54;102375.00;;;19.70
12918;BMP180;6526;54.312;13.092;2022-10-29T11:58:38;102371.00;;;19.90
12918;BMP180;6526;54.312;13.092;2022-10-29T12:01:27;102374.00;;;20.00
12918;BMP180;6526;54.312;13.092;2022-10-29T12:04:21;102376.00;;;20.00
12918;BMP180;6526;54.312;13.092;2022-10-29T12:09:45;102369.00;;;19.80
12918;BMP180;6526;54.312;13.092;2022-10-29T12:12:19;102371.00;;;19.80
12918;BMP180;6526;54.312;13.092;2022-10-29T12:14:48;102373.00;;;19.80
12918;BMP180;6526;54.312;13.092;2022-10-29T12:17:27;102370.00;;;19.90
12918;BMP180;6526;54.312;13.092;2022-10-29T12:20:36;102366.00;;;20.00
12918;BMP180;6526;54.312;13.092;2022-10-29T12:23:23;102356.00;;;20.10
12918;BMP180;6526;54.312;13.092;2022-10-29T12:36:44;102369.00;;;20.20
12918;BMP180;6526;54.312;13.092;2022-10-29T12:39:29;102345.00;;;20.30
12918;BMP180;6526;54.312;13.092;2022-10-29T12:42:14;102344.00;;;20.40
12918;BMP180;6526;54.312;13.092;2022-10-29T12:45:13;102340.00;;;20.40
12918;BMP180;6526;54.312;13.092;2022-10-29T12:47:40;102333.00;;;20.30
12918;BMP180;6526;54.312;13.092;2022-10-29T12:50:31;102335.00;;;20.50
12918;BMP180;6526;54.312;13.092;2022-10-29T12:56:02;102347.00;;;20.70
12918;BMP180;6526;54.312;13.092;2022-10-29T12:59:30;102342.00;;;20.50
12918;BMP180;6526;54.312;13.092;2022-10-29T13:04:03;102344.00;;;20.50
12918;BMP180;6526;54.312;13.092;2022-10-29T13:09:16;102344.00;;;20.40
12918;BMP180;6526;54.312;13.092;2022-10-29T13:11:50;102340.00;;;20.30
12918;BMP180;6526;54.312;13.092;2022-10-29T13:14:21;102329.00;;;20.30
12918;BMP180;6526;54.312;13.092;2022-10-29T13:16:50;102324.00;;;20.40
12918;BMP180;6526;54.312;13.092;2022-10-29T13:19:27;102328.00;;;20.40
12918;BMP180;6526;54.312;13.092;2022-10-29T13:22:02;102328.00;;;20.30
12918;BMP180;6526;54.312;13.092;2022-10-29T13:24:30;102327.00;;;20.30
12918;BMP180;6526;54.312;13.092;2022-10-29T13:26:58;102332.00;;;20.20
12918;BMP180;6526;54.312;13.092;2022-10-29T13:32:32;102308.00;;;20.20
12918;BMP180;6526;54.312;13.092;2022-10-29T13:35:00;102338.00;;;20.10
12918;BMP180;6526;54.312;13.092;2022-10-29T13:37:53;102332.00;;;20.10
12918;BMP180;6526;54.312;13.092;2022-10-29T13:43:01;102328.00;;;20.00
12918;BMP180;6526;54.312;13.092;2022-10-29T13:45:29;102332.00;;;19.80
12918;BMP180;6526;54.312;13.092;2022-10-29T13:48:00;102332.00;;;19.90
12918;BMP180;6526;54.312;13.092;2022-10-29T13:50:27;102344.00;;;20.00
12918;BMP180;6526;54.312;13.092;2022-10-29T13:52:55;102341.00;;;19.90
12918;BMP180;6526;54.312;13.092;2022-10-29T13:55:23;102325.00;;;19.90
12918;BMP180;6526;54.312;13.092;2022-10-29T13:58:14;102343.00;;;19.80
12918;BMP180;6526;54.312;13.092;2022-10-29T14:00:43;102343.00;;;19.80
12918;BMP180;6526;54.312;13.092;2022-10-29T14:03:43;102343.00;;;19.80
12918;BMP180;6526;54.312;13.092;2022-10-29T14:06:19;102344.00;;;19.80
12918;BMP180;6526;54.312;13.092;2022-10-29T14:08:57;102346.00;;;19.80
12918;BMP180;6526;54.312;13.092;2022-10-29T14:11:33;102338.00;;;19.80
12918;BMP180;6526;54.312;13.092;2022-10-29T14:14:04;102336.00;;;19.70
12918;BMP180;6526;54.312;13.092;2022-10-29T14:16:32;102339.00;;;19.80
12918;BMP180;6526;54.312;13.092;2022-10-29T14:19:13;102340.00;;;19.80
12918;BMP180;6526;54.312;13.092;2022-10-29T14:21:39;102333.00;;;19.80
12918;BMP180;6526;54.312;13.092;2022-10-29T14:24:08;102339.00;;;19.70
12918;BMP180;6526;54.312;13.092;2022-10-29T14:26:39;102331.00;;;19.70
12918;BMP180;6526;54.312;13.092;2022-10-29T14:29:26;102327.00;;;19.70
12918;BMP180;6526;54.312;13.092;2022-10-29T14:32:10;102327.00;;;19.60
12918;BMP180;6526;54.312;13.092;2022-10-29T14:34:36;102318.00;;;19.60
12918;BMP180;6526;54.312;13.092;2022-10-29T14:37:47;102317.00;;;19.60
12918;BMP180;6526;54.312;13.092;2022-10-29T14:39:56;102327.00;;;19.60
12918;BMP180;6526;54.312;13.092;2022-10-29T14:42:35;102323.00;;;19.70
12918;BMP180;6526;54.312;13.092;2022-10-29T14:45:06;102329.00;;;19.80
12918;BMP180;6526;54.312;13.092;2022-10-29T14:47:34;102321.00;;;19.80
12918;BMP180;6526;54.312;13.092;2022-10-29T14:50:03;102327.00;;;19.70
12918;BMP180;6526;54.312;13.092;2022-10-29T14:52:32;102305.00;;;19.70
12918;BMP180;6526;54.312;13.092;2022-10-29T14:55:02;102326.00;;;19.60
12918;BMP180;6526;54.312;13.092;2022-10-29T14:57:34;102321.00;;;19.50
12918;BMP180;6526;54.312;13.092;2022-10-29T15:00:06;102314.00;;;19.50
12918;BMP180;6526;54.312;13.092;2022-10-29T15:02:38;102333.00;;;19.40
12918;BMP180;6526;54.312;13.092;2022-10-29T15:05:27;102345.00;;;19.30
12918;BMP180;6526;54.312;13.092;2022-10-29T15:10:52;102344.00;;;19.30
12918;BMP180;6526;54.312;13.092;2022-10-29T15:13:38;102357.00;;;19.20
12918;BMP180;6526;54.312;13.092;2022-10-29T15:16:15;102349.00;;;19.20
12918;BMP180;6526;54.312;13.092;2022-10-29T15:18:47;102332.00;;;19.20
12918;BMP180;6526;54.312;13.092;2022-10-29T15:21:21;102332.00;;;19.10
12918;BMP180;6526;54.312;13.092;2022-10-29T15:23:48;102333.00;;;19.10
12918;BMP180;6526;54.312;13.092;2022-10-29T15:26:19;102325.00;;;19.00
12918;BMP180;6526;54.312;13.092;2022-10-29T15:28:51;102323.00;;;19.00
12918;BMP180;6526;54.312;13.092;2022-10-29T15:31:32;102327.00;;;19.00
12918;BMP180;6526;54.312;13.092;2022-10-29T15:34:09;102336.00;;;19.00
12918;BMP180;6526;54.312;13.092;2022-10-29T15:36:52;102335.00;;;19.10
12918;BMP180;6526;54.312;13.092;2022-10-29T15:39:26;102325.00;;;19.10
12918;BMP180;6526;54.312;13.092;2022-10-29T15:41:57;102319.00;;;19.10
12918;BMP180;6526;54.312;13.092;2022-10-29T15:44:34;102316.00;;;19.00
12918;BMP180;6526;54.312;13.092;2022-10-29T15:47:17;102320.00;;;19.00
12918;BMP180;6526;54.312;13.092;2022-10-29T15:49:43;102324.00;;;19.00
12918;BMP180;6526;54.312;13.092;2022-10-29T15:52:13;102330.00;;;19.00